• Join FlightAware (Why Join?)
  • Login
  • US Flag 
11:54AM EDT


 

Airport Tracker/Info


-or-


 

Live Flight TrackerFlight Track Log ✈ SWA3943 ✈ 03-Nov-2013 ✈ KMDW - KPHX

Flight Track Log - Related Links

Times and Time Zones

All times are in EST time to prevent confusion due to time zone crossing. See the SWA3943 flight status page for this flight to view local times or setup timezone preferences in your user account.

Time Position Orientation Groundspeed Altitude Reporting Facility
EST Latitude Longitude Course Direction KTS MPH feet Rate Location/Type
08:51PM 41.8070 -87.7300 12° North 185 213 1,600  Level FlightAware
08:51PM 41.8320 -87.7420 340° North 239 275 2,000 1,020 Climbing FlightAware
08:52PM 41.8390 -87.7660 291° West 252 290 2,400 1,020 Climbing FlightAware
08:52PM 41.8280 -87.8030 248° West 231 266 2,800 360 Climbing FlightAware
08:52PM 41.8170 -87.8320 243° Southwest 228 262 2,700  Descending FlightAware
08:53PM 41.8040 -87.8680 244° Southwest 231 266 2,800 780 Climbing FlightAware
08:53PM 41.7930 -87.8970 243° Southwest 233 268 3,400 2,220 Climbing FlightAware
08:54PM 41.7900 -87.9340 264° West 244 281 4,600 3,060 Climbing FlightAware
08:54PM 41.7890 -87.9790 268° West 246 283 6,200 2,760 Climbing FlightAware
08:55PM 41.7880 -88.0310 269° West 270 311 7,500 2,760 Climbing FlightAware
08:55PM 41.8100 -88.0770 303° West 277 319 9,300 3,240 Climbing FlightAware
08:56PM 41.8370 -88.1200 310° West 273 314 11,100 3,180 Climbing FlightAware
08:56PM 41.8430 -88.1590 282° West 270 311 12,300 1,860 Climbing FlightAware
08:57PM 41.8380 -88.2450 266° West 318 366 13,400 1,860 Climbing FlightAware
08:58PM 41.8340 -88.3020 265° West 324 373 14,700 2,640 Climbing FlightAware
08:59PM 41.8240 -88.4270 264° West 336 387 17,300 2,460 Climbing FlightAware
08:59PM 41.8170 -88.5350 265° West 345 397 19,300 2,220 Climbing FlightAware
09:00PM 41.8090 -88.6440 264° West 355 409 21,100 2,160 Climbing FlightAware
09:01PM 41.8020 -88.7340 264° West 355 409 22,700 1,920 Climbing FlightAware
09:02PM 41.7920 -88.8430 263° West 367 422 24,100 1,020 Climbing FlightAware
09:03PM 41.7730 -88.9880 260° West 405 466 24,700 600 Climbing FlightAware
09:03PM 41.7650 -89.0490 260° West 417 480 25,000 1,380 Climbing FlightAware
09:04PM 41.7440 -89.2120 260° West 416 479 26,800 1,860 Climbing FlightAware
09:05PM 41.7270 -89.3340 259° West 404 465 28,500 1,800 Climbing FlightAware
09:06PM 41.7150 -89.4200 259° West 405 466 29,300 1,320 Climbing FlightAware
09:07PM 41.6970 -89.5520 260° West 402 463 30,500 1,560 Climbing FlightAware
09:08PM 41.6790 -89.6890 260° West 385 443 32,300 1,440 Climbing FlightAware
09:08PM 41.6470 -89.8100 251° West 388 447 33,200 900 Climbing FlightAware
09:09PM 41.6040 -89.9440 247° West 390 449 34,100 1,200 Climbing FlightAware
09:10PM 41.5710 -90.0460 247° West 374 430 35,400 1,560 Climbing FlightAware
09:11PM 41.5570 -90.0910 247° West 369 425 35,900 420 Climbing FlightAware
09:12PM 41.5160 -90.2160 246° West 373 429 36,000  Climbing FlightAware
09:12PM 41.4790 -90.3280 246° West 376 433 36,000  Level FlightAware
09:13PM 41.4420 -90.4410 246° West 376 433 36,000  Level FlightAware
09:14PM 41.4070 -90.5500 247° West 376 433 36,000  Level FlightAware
09:15PM 41.3720 -90.6630 248° West 375 432 36,000  Level FlightAware
09:16PM 41.3420 -90.7650 249° West 375 432 36,000  Level FlightAware
09:16PM 41.3330 -90.8320 260° West 375 432 36,000  Level FlightAware
09:17PM 41.3360 -90.9580 272° West 376 433 36,000  Level FlightAware
09:18PM 41.3370 -91.0140 271° West 376 433 36,000  Level FlightAware
09:18PM 41.3370 -91.1210 270° West 373 429 36,000  Level FlightAware
09:19PM 41.3290 -91.1640 256° West 373 429 36,000  Level FlightAware
09:19PM 41.3160 -91.2150 251° West 374 430 36,000  Level FlightAware
09:20PM 41.2910 -91.3120 251° West 374 430 36,000  Level FlightAware
09:21PM 41.2620 -91.4280 252° West 374 430 36,000  Level FlightAware
09:22PM 41.2290 -91.5570 251° West 374 430 36,000  Level FlightAware
09:23PM 41.2030 -91.6620 252° West 376 433 36,000  Level FlightAware
09:23PM 41.1860 -91.7260 251° West 376 433 36,000  Level FlightAware
09:23PM 41.1710 -91.7860 252° West 377 434 36,000  Level FlightAware
09:24PM 41.1400 -91.9080 251° West 376 433 36,000  Level FlightAware
09:25PM 41.1050 -92.0410 251° West 376 433 36,000  Level FlightAware
09:26PM 41.0720 -92.1660 251° West 375 432 36,000  Level FlightAware
09:27PM 41.0420 -92.2840 251° West 374 430 36,000  Level FlightAware
09:28PM 41.0140 -92.3870 250° West 374 430 36,000  Level FlightAware
09:29PM 40.9820 -92.5090 251° West 372 428 36,000  Level FlightAware
09:30PM 40.9540 -92.6150 251° West 372 428 36,000  Level FlightAware
09:31PM 40.9260 -92.7220 251° West 373 429 36,000  Level FlightAware
09:31PM 40.9110 -92.7770 250° West 373 429 36,000  Level FlightAware
09:32PM 40.8780 -92.8990 250° West 372 428 36,000  Level FlightAware
09:32PM 40.8640 -92.9510 250° West 372 428 36,000  Level FlightAware
09:33PM 40.8430 -93.0280 250° West 370 426 36,000  Level FlightAware
09:34PM 40.8080 -93.1570 250° West 370 426 36,000  Level FlightAware
09:35PM 40.7830 -93.2490 250° West 369 425 36,000  Level FlightAware
09:36PM 40.7480 -93.3760 250° West 371 427 36,000  Level FlightAware
09:36PM 40.7320 -93.4360 251° West 372 428 36,000  Level FlightAware
09:37PM 40.7120 -93.5070 250° West 374 430 36,000  Level FlightAware
09:38PM 40.6790 -93.6290 250° West 376 433 36,000  Level FlightAware
09:38PM 40.6570 -93.7070 250° West 378 435 36,000  Level FlightAware
09:39PM 40.6460 -93.7460 250° West 377 434 36,000  Level FlightAware
09:40PM 40.6040 -93.8970 250° West 378 435 36,000  Level FlightAware
09:41PM 40.5720 -94.0110 250° West 377 434 36,000  Level FlightAware
09:41PM 40.5560 -94.0700 250° West 376 433 36,000  Level FlightAware
09:42PM 40.5210 -94.1930 250° West 377 434 36,000  Level FlightAware
09:43PM 40.4890 -94.3070 250° West 378 435 36,000  Level FlightAware
09:44PM 40.4560 -94.4210 249° West 380 437 36,000  Level FlightAware
09:45PM 40.4190 -94.5510 250° West 378 435 36,000  Level FlightAware
09:46PM 40.3970 -94.6260 249° West 378 435 36,000  Level FlightAware
09:46PM 40.3660 -94.7360 250° West 378 435 36,000  Level FlightAware
09:47PM 40.3320 -94.8520 249° West 377 434 36,000  Level FlightAware
09:48PM 40.3010 -94.9580 249° West 377 434 36,000  Level FlightAware
09:49PM 40.2660 -95.0780 249° West 377 434 36,000  Level FlightAware
09:50PM 40.2490 -95.1360 249° West 375 432 36,000  Level FlightAware
09:50PM 40.2260 -95.2140 249° West 376 433 36,000  Level FlightAware
09:51PM 40.1900 -95.3350 249° West 376 433 36,000  Level FlightAware
09:52PM 40.1580 -95.4430 249° West 375 432 36,000  Level FlightAware
09:53PM 40.1230 -95.5610 249° West 376 433 36,000  Level FlightAware
09:54PM 40.0900 -95.6730 249° West 375 432 36,000  Level FlightAware
09:54PM 40.0700 -95.7410 249° West 374 430 36,000  Level FlightAware
09:55PM 40.0370 -95.8500 248° West 373 429 36,000  Level FlightAware
09:56PM 40.0170 -95.9150 248° West 372 428 36,000  Level FlightAware
09:57PM 39.9820 -96.0310 249° West 373 429 36,000  Level FlightAware
09:57PM 39.9610 -96.1010 249° West 373 429 36,000  Level FlightAware
09:58PM 39.9430 -96.1600 248° West 374 430 36,000  Level FlightAware
09:58PM 39.9100 -96.2670 248° West 375 432 36,000  Level FlightAware
09:59PM 39.8900 -96.3320 248° West 374 430 36,000  Level FlightAware
10:00PM 39.8580 -96.4370 248° West 371 427 36,000  Level FlightAware
10:01PM 39.8470 -96.4730 248° West 371 427 36,000  Level FlightAware
10:01PM 39.8330 -96.5190 248° West 370 426 36,000  Level FlightAware
10:02PM 39.8070 -96.6020 248° West 368 423 36,000  Level FlightAware
10:04PM 39.7170 -96.8920 248° West 367 422 36,000  Level FlightAware
10:04PM 39.7020 -96.9370 247° West 366 421 36,000  Level FlightAware
10:05PM 39.6760 -97.0210 248° West 367 422 36,000  Level FlightAware
10:05PM 39.6570 -97.0810 248° West 368 423 36,000  Level FlightAware
10:06PM 39.6800 -97.0100 67° East 368 423 36,000  Level FlightAware
10:07PM 39.5890 -97.2980 248° West 366 421 36,000  Level FlightAware
10:07PM 39.5710 -97.3520 247° West 365 420 36,000  Level FlightAware
10:08PM 39.5250 -97.4960 248° West 363 418 36,000  Level FlightAware
10:09PM 39.4920 -97.5990 247° West 360 414 36,000  Level FlightAware
10:10PM 39.4620 -97.6940 248° West 360 414 36,000  Level FlightAware
10:11PM 39.4450 -97.7470 247° West 358 412 36,000  Level FlightAware
10:11PM 39.4130 -97.8430 247° West 356 410 36,000  Level FlightAware
10:12PM 39.3950 -97.8990 247° West 356 410 36,000  Level FlightAware
10:12PM 39.3760 -97.9570 247° West 359 413 36,000  Level FlightAware
10:13PM 39.3360 -98.0820 248° West 358 412 36,000  Level FlightAware
10:14PM 39.3140 -98.1490 247° West 359 413 36,000  Level FlightAware
10:15PM 39.2790 -98.2560 247° West 361 415 36,000  Level FlightAware
10:15PM 39.2570 -98.3220 247° West 360 414 36,000  Level FlightAware
10:17PM 39.2120 -98.4590 247° West 359 413 36,000  Level FlightAware
10:18PM 39.1800 -98.5520 246° West 358 412 36,000  Level FlightAware
10:18PM 39.1450 -98.6570 247° West 357 411 36,000  Level FlightAware
10:19PM 39.1200 -98.7250 245° Southwest 359 413 36,000  Level FlightAware
10:20PM 39.0740 -98.8130 236° Southwest 359 413 36,000  Level FlightAware
10:20PM 39.0450 -98.8680 236° Southwest 359 413 36,000  Level FlightAware
10:22PM 38.9470 -99.0210 231° Southwest 357 411 36,000  Level FlightAware
10:23PM 38.9050 -99.0910 232° Southwest 357 411 36,000  Level FlightAware
10:24PM 38.8650 -99.1600 233° Southwest 357 411 36,000  Level FlightAware
10:25PM 38.8140 -99.2470 233° Southwest 357 411 36,000  Level FlightAware
10:25PM 38.7400 -99.3790 234° Southwest 358 412 36,000  Level FlightAware
10:26PM 38.7000 -99.4480 233° Southwest 358 412 36,000  Level FlightAware
10:27PM 38.6590 -99.5170 233° Southwest 358 412 36,000  Level FlightAware
10:28PM 38.6020 -99.6270 236° Southwest 359 413 36,000  Level FlightAware
10:29PM 38.5680 -99.7260 246° West 359 413 36,000  Level FlightAware
10:29PM 38.5530 -99.7730 248° West 358 412 36,000  Level FlightAware
10:29PM 38.5340 -99.8310 247° West 358 412 36,000  Level FlightAware
10:30PM 38.4960 -99.9460 247° West 357 411 36,000  Level FlightAware
10:31PM 38.4690 -100.0310 248° West 353 406 36,000  Level FlightAware
10:32PM 38.4380 -100.1250 247° West 352 405 36,000  Level FlightAware
10:33PM 38.4120 -100.2020 247° West 352 405 36,000  Level FlightAware
10:33PM 38.3810 -100.2950 247° West 354 407 36,000  Level FlightAware
10:34PM 38.3670 -100.3380 247° West 354 407 36,000  Level FlightAware
10:35PM 38.3330 -100.4390 247° West 353 406 36,000  Level FlightAware
10:35PM 38.3210 -100.4770 248° West 354 407 36,000  Level FlightAware
10:36PM 38.2900 -100.5690 247° West 355 409 36,000  Level FlightAware
10:37PM 38.2610 -100.6510 246° West 355 409 36,000  Level FlightAware
10:37PM 38.2410 -100.7100 247° West 355 409 36,000  Level FlightAware
10:38PM 38.2050 -100.8210 248° West 357 411 36,000  Level FlightAware
10:39PM 38.1680 -100.9310 247° West 358 412 36,000  Level FlightAware
10:40PM 38.1370 -101.0230 247° West 358 412 36,000  Level FlightAware
10:40PM 38.1190 -101.0730 245° Southwest 356 410 36,000  Level FlightAware
10:41PM 38.0860 -101.1720 247° West 355 409 36,000  Level FlightAware
10:41PM 38.0700 -101.2190 247° West 355 409 36,000  Level FlightAware
10:42PM 38.0360 -101.3170 246° West 355 409 36,000  Level FlightAware
10:43PM 38.0070 -101.4010 246° West 355 409 36,000  Level FlightAware
10:44PM 37.9740 -101.4960 246° West 356 410 36,000  Level FlightAware
10:44PM 37.9570 -101.5440 246° West 356 410 36,000  Level FlightAware
10:45PM 37.9220 -101.6450 246° West 355 409 36,000  Level FlightAware
10:45PM 37.9090 -101.6820 246° West 356 410 36,000  Level FlightAware
10:46PM 37.8780 -101.7720 246° West 354 407 36,000  Level FlightAware
10:47PM 37.8380 -101.8860 246° West 351 404 36,000  Level FlightAware
10:48PM 37.8080 -101.9700 246° West 350 403 36,000  Level FlightAware
10:49PM 37.7720 -102.0720 246° West 347 399 36,000  Level FlightAware
10:50PM 37.7440 -102.1520 246° West 346 398 36,000  Level FlightAware
10:50PM 37.7230 -102.2120 246° West 345 397 36,000  Level FlightAware
10:51PM 37.6970 -102.2860 246° West 342 394 36,000  Level FlightAware
10:52PM 37.6660 -102.3730 246° West 346 398 36,000  Level FlightAware
10:52PM 37.6490 -102.4180 245° Southwest 345 397 36,000  Level FlightAware
10:53PM 37.6290 -102.4770 247° West 345 397 36,000  Level FlightAware
10:53PM 37.6080 -102.5350 245° Southwest 345 397 36,000  Level FlightAware
10:54PM 37.5830 -102.6040 245° Southwest 344 396 36,000  Level FlightAware
10:55PM 37.5500 -102.6960 246° West 345 397 36,000  Level FlightAware
10:55PM 37.5260 -102.7620 245° Southwest 345 397 36,000  Level FlightAware
10:56PM 37.4870 -102.8690 245° Southwest 348 400 36,000  Level FlightAware
10:57PM 37.4690 -102.9200 246° West 349 402 36,000  Level FlightAware
10:57PM 37.4450 -102.9870 246° West 348 400 36,000  Level FlightAware
10:58PM 37.4040 -103.0980 245° Southwest 349 402 36,000  Level FlightAware
10:59PM 37.3880 -103.1410 245° Southwest 348 400 36,000  Level FlightAware
11:00PM 37.3510 -103.2440 246° West 345 397 36,000  Level FlightAware
11:00PM 37.3350 -103.2870 245° Southwest 345 397 36,000  Level FlightAware
11:01PM 37.3010 -103.3770 245° Southwest 346 398 36,000  Level FlightAware
11:01PM 37.2740 -103.4520 246° West 344 396 36,000  Level FlightAware
11:02PM 37.2600 -103.4880 244° Southwest 344 396 36,000  Level FlightAware
11:03PM 37.2250 -103.5840 245° Southwest 348 400 36,000  Level FlightAware
11:03PM 37.2060 -103.6340 245° Southwest 347 399 36,000  Level FlightAware
11:04PM 37.1630 -103.7510 245° Southwest 348 400 36,000  Level FlightAware
11:05PM 37.1370 -103.8190 244° Southwest 346 398 36,000  Level FlightAware
11:06PM 37.1090 -103.8940 245° Southwest 347 399 36,000  Level FlightAware
11:06PM 37.0880 -103.9500 245° Southwest 352 405 36,000  Level FlightAware
11:07PM 37.0700 -103.9980 245° Southwest 352 405 36,000  Level FlightAware
11:08PM 37.0270 -104.1120 245° Southwest 354 407 36,000  Level FlightAware
11:08PM 37.0040 -104.1740 245° Southwest 364 419 36,000  Level FlightAware
11:09PM 36.9810 -104.2340 244° Southwest 369 425 36,000  Level FlightAware
11:10PM 36.9400 -104.3440 245° Southwest 355 409 36,000  Level FlightAware
11:10PM 36.9110 -104.4200 245° Southwest 344 396 36,000  Level FlightAware
11:11PM 36.8780 -104.5060 244° Southwest 340 391 36,000  Level FlightAware
11:12PM 36.8420 -104.5980 244° Southwest 342 394 36,000  Level FlightAware
11:13PM 36.8110 -104.6800 245° Southwest 345 397 36,000  Level FlightAware
11:14PM 36.7760 -104.7710 244° Southwest 344 396 36,000  Level FlightAware
11:14PM 36.7580 -104.8170 244° Southwest 343 395 36,000  Level FlightAware
11:15PM 36.7290 -104.8930 245° Southwest 353 406 36,000  Level FlightAware
11:16PM 36.6860 -105.0020 244° Southwest 359 413 36,000  Level FlightAware
11:16PM 36.6510 -105.0930 244° Southwest 371 427 36,000  Level FlightAware
11:17PM 36.6210 -105.1700 244° Southwest 368 423 36,000  Level FlightAware
11:18PM 36.5890 -105.2510 244° Southwest 354 407 36,000  Level FlightAware
11:19PM 36.5460 -105.3610 244° Southwest 358 412 36,000  Level FlightAware
11:19PM 36.5220 -105.4240 245° Southwest 356 410 36,000  Level FlightAware
11:20PM 36.4830 -105.5220 244° Southwest 352 405 36,000  Level FlightAware
11:21PM 36.4590 -105.5830 244° Southwest 343 395 36,000  Level FlightAware
11:21PM 36.4330 -105.6480 244° Southwest 341 392 36,000  Level FlightAware
11:23PM 36.3880 -105.7610 244° Southwest 338 389 36,000  Level FlightAware
11:24PM 36.3490 -105.8580 243° Southwest 336 387 36,000  Level FlightAware
11:24PM 36.3350 -105.8950 245° Southwest 335 386 36,000  Level FlightAware
11:25PM 36.2910 -106.0040 243° Southwest 334 384 36,000  Level FlightAware
11:26PM 36.2660 -106.0660 243° Southwest 332 382 36,000  Level FlightAware
11:27PM 36.2230 -106.1730 244° Southwest 334 384 36,000  Level FlightAware
11:27PM 36.1950 -106.2430 244° Southwest 339 390 36,000  Level FlightAware
11:28PM 36.1580 -106.3340 243° Southwest 345 397 36,000  Level FlightAware
11:29PM 36.1170 -106.4360 244° Southwest 345 397 36,000  Level FlightAware
11:30PM 36.0810 -106.5250 243° Southwest 344 396 36,000  Level FlightAware
11:31PM 36.0480 -106.6050 243° Southwest 340 391 36,000  Level FlightAware
11:32PM 36.0080 -106.7020 243° Southwest 343 395 36,000  Level FlightAware
11:33PM 35.9680 -106.8000 243° Southwest 344 396 36,000  Level FlightAware
11:33PM 35.9520 -106.8390 243° Southwest 343 395 36,000  Level FlightAware
11:34PM 35.9120 -106.9370 243° Southwest 336 387 36,000  Level FlightAware
11:34PM 35.8970 -106.9730 243° Southwest 337 388 36,000  Level FlightAware
11:35PM 35.8570 -107.0690 243° Southwest 342 394 36,000  Level FlightAware
11:36PM 35.8250 -107.1460 243° Southwest 343 395 36,000  Level FlightAware
11:37PM 35.7860 -107.2390 243° Southwest 347 399 36,000  Level FlightAware
11:38PM 35.7540 -107.3150 243° Southwest 348 400 36,000  Level FlightAware
11:38PM 35.7130 -107.4160 243° Southwest 351 404 36,000  Level FlightAware
11:39PM 35.6740 -107.5070 242° Southwest 351 404 36,000  Level FlightAware
11:40PM 35.6380 -107.5930 243° Southwest 361 415 36,000  Level FlightAware
11:41PM 35.6160 -107.6450 243° Southwest 362 417 36,000  Level FlightAware
11:42PM 35.5680 -107.7610 243° Southwest 359 413 36,000  Level FlightAware
11:42PM 35.5300 -107.8490 242° Southwest 361 415 36,000  Level FlightAware
11:43PM 35.4920 -107.9390 243° Southwest 361 415 36,000  Level FlightAware
11:44PM 35.4560 -108.0230 242° Southwest 360 414 36,000  Level FlightAware
11:45PM 35.4220 -108.1010 242° Southwest 360 414 36,000  Level FlightAware
11:46PM 35.3900 -108.1750 242° Southwest 360 414 36,000  Level FlightAware
11:47PM 35.3500 -108.2680 242° Southwest 360 414 36,000  Level FlightAware
11:47PM 35.3260 -108.3240 242° Southwest 360 414 36,000  Level FlightAware
11:48PM 35.3030 -108.3760 242° Southwest 360 414 36,000  Level FlightAware
11:49PM 35.2710 -108.4490 242° Southwest 360 414 36,000  Level FlightAware
11:50PM 35.2310 -108.5410 242° Southwest 360 414 36,000  Level FlightAware
11:50PM 35.2150 -108.5780 242° Southwest 360 414 36,000  Level FlightAware
11:51PM 35.1910 -108.6330 242° Southwest 360 414 36,000  Level FlightAware
11:52PM 35.1520 -108.7250 243° Southwest 360 414 36,000  Level FlightAware
11:53PM 35.1200 -108.7980 242° Southwest 360 414 36,000  Level FlightAware
11:53PM 35.0100 -109.0550 242° Southwest 361 415 36,000  Level FlightAware
11:54PM 34.9780 -109.1260 241° Southwest 361 415 36,000  Level FlightAware
11:55PM 34.9560 -109.1760 242° Southwest 361 415 36,000  Level FlightAware
11:55PM 34.9220 -109.2740 247° West 364 419 36,000  Level FlightAware
11:56PM 34.8880 -109.3680 246° West 364 419 36,000  Level FlightAware
11:57PM 34.8530 -109.4620 246° West 364 419 36,000  Level FlightAware
11:58PM 34.8270 -109.5340 246° West 364 419 36,000  Level FlightAware
11:58PM 34.7970 -109.6150 246° West 366 421 36,000  Level FlightAware
11:59PM 34.7600 -109.7150 246° West 368 423 36,000  Level FlightAware
12:00AM 34.7400 -109.7690 246° West 367 422 36,000  Level FlightAware
12:01AM 34.7010 -109.8750 246° West 367 422 36,000  Level FlightAware
12:02AM 34.6710 -109.9550 246° West 368 423 36,000  Level FlightAware
12:02AM 34.6480 -110.0170 246° West 367 422 36,000  Level FlightAware
12:03AM 34.6070 -110.1270 246° West 366 421 36,000  Level FlightAware
12:04AM 34.5720 -110.2200 245° Southwest 368 423 36,000 -660 Level FlightAware
12:05AM 34.5270 -110.3410 246° West 364 419 34,800 -1,500 Descending FlightAware
12:05AM 34.5080 -110.3920 246° West 361 415 33,700 -2,220 Descending FlightAware
12:06AM 34.4780 -110.4710 245° Southwest 352 405 32,200 -1,920 Descending FlightAware
12:07AM 34.4400 -110.5710 245° Southwest 353 406 30,500 -1,980 Descending FlightAware
12:08AM 34.4050 -110.6620 245° Southwest 376 433 28,800 -2,220 Descending FlightAware
12:09AM 34.3710 -110.7520 245° Southwest 370 426 27,000 -2,220 Descending FlightAware
12:09AM 34.3380 -110.8160 238° Southwest 371 427 25,700 -2,040 Descending FlightAware
12:10AM 34.2830 -110.8870 227° Southwest 365 420 24,000 -1,860 Descending FlightAware
12:11AM 34.2350 -110.9490 227° Southwest 361 415 22,600 -2,040 Descending FlightAware
12:12AM 34.1880 -111.0100 227° Southwest 356 410 21,100 -2,280 Descending FlightAware
12:13AM 34.1200 -111.0970 227° Southwest 351 404 19,000 -2,100 Descending FlightAware
12:13AM 34.0920 -111.1340 228° Southwest 347 399 18,200 -1,980 Descending FlightAware
12:14AM 34.0370 -111.2040 227° Southwest 341 392 16,500 -2,040 Descending FlightAware
12:15AM 33.9730 -111.2860 227° Southwest 333 383 14,600 -1,920 Descending FlightAware
12:16AM 33.9110 -111.3650 227° Southwest 323 372 12,700 -1,980 Descending FlightAware
12:16AM 33.8940 -111.3870 227° Southwest 330 380 12,100 -1,200 Descending FlightAware
12:17AM 33.8450 -111.4350 219° Southwest 304 350 11,500 -660 Descending FlightAware
12:18AM 33.7970 -111.4770 216° Southwest 291 335 11,200 -840 Descending FlightAware
12:18AM 33.7380 -111.5270 215° Southwest 277 319 10,200 -1,140 Descending FlightAware
12:19AM 33.7040 -111.5560 215° Southwest 269 310 9,500 -900 Descending FlightAware
12:20AM 33.6680 -111.5860 215° Southwest 252 290 9,200 -600 Descending FlightAware
12:20AM 33.6420 -111.6090 216° Southwest 233 268 8,900 -720 Descending FlightAware
12:20AM 33.6310 -111.6180 214° Southwest 229 264 8,700 -1,020 Descending FlightAware
12:21AM 33.6060 -111.6400 216° Southwest 225 259 8,200 -1,020 Descending FlightAware
12:21AM 33.5800 -111.6610 214° Southwest 223 257 7,700 -1,140 Descending FlightAware
12:22AM 33.5690 -111.6700 214° Southwest 223 257 7,400 -1,260 Descending FlightAware
12:22AM 33.5430 -111.6920 215° Southwest 224 258 6,800 -1,200 Descending FlightAware
12:22AM 33.5290 -111.7040 216° Southwest 227 261 6,500 -1,020 Descending FlightAware
12:23AM 33.5070 -111.7220 214° Southwest 225 259 6,100 -720 Descending FlightAware
12:23AM 33.4930 -111.7340 216° Southwest 212 244 6,000 -600 Descending FlightAware
12:23AM 33.4730 -111.7510 215° Southwest 196 226 5,700 -1,020 Descending FlightAware
12:24AM 33.4620 -111.7630 222° Southwest 192 221 5,300 -1,320 Descending FlightAware
12:24AM 33.4440 -111.7880 229° Southwest 197 227 4,700 -1,080 Descending FlightAware
12:25AM 33.4350 -111.8070 240° Southwest 191 220 4,400 -1,020 Descending FlightAware
12:25AM 33.4310 -111.8290 258° West 185 213 4,000 -960 Descending FlightAware
12:25AM 33.4310 -111.8570 270° West 167 192 3,600 -900 Descending FlightAware
12:26AM 33.4310 -111.8870 270° West 154 177 3,100 -960 Descending FlightAware
12:26AM 33.4310 -111.9020 270° West 151 174 2,800 -900 Descending FlightAware
12:27AM 33.4310 -111.9200 270° West 150 173 2,500 -780 Descending FlightAware
12:27AM 33.4310 -111.9340 270° West 151 174 2,300 -960 Descending FlightAware
12:28AM 33.4310 -111.9690 270° West 153 176 1,700 -960 Descending FlightAware
12:28AM 33.4310 -111.9810 270° West 153 176 1,500 -660 Descending FlightAware
12:28AM 33.4310 -111.9870 270° West 153 176 1,400 -180 Descending FlightAware
12:28AM 33.4310 -112.0050 270° West 153 176 1,400  Level FlightAware
12:36AM 33.4333 -112.0000 90° East  Level FlightAware Approximate